Madisonville, KY

4:04 PM CST on December 14, 2017 (GMT -0600)
Madisonville

Weather History for K2I0 - March, 2014

Change the Weather History Date:

Saturday, March 22, 2014

  Actual Average (KOWB) Record (KOWB)
Temperature  
Mean Temperature 51 °F -  
Max Temperature 59 °F 58 °F 80 °F (1938)
Min Temperature 43 °F 36 °F 21 °F (2002)
Degree Days  
Heating Degree Days 14    
Growing Degree Days 1 (Base 50)    
Moisture  
Dew Point 36 °F    
Average Humidity 58    
Maximum Humidity 75    
Minimum Humidity 38    
Precipitation  
Precipitation 0.00 in - - ()
Sea Level Pressure  
Sea Level Pressure 30.10 in    
Wind  
Wind Speed 10 mph (North)    
Max Wind Speed 16 mph    
Max Gust Speed 24 mph    
Visibility 10 miles    
Events      
Averages and records for this station are not official NWS values.
T = Trace of Precipitation, MM = Missing Value Source: NWS Daily Summary

Daily Weather History Graph

Daily Weather History Graph

Search for Another Location

Airport or City:

Trip Planner

Search our weather history database for the weather conditions in past years. The results will help you decide how hot, cold, wet, or windy it might be!

Date:

Astronomy

Mar. 22, 2014 Rise Set
Actual Time 6:50 AM CDT 7:03 PM CDT
Civil Twilight 6:24 AM CDT 7:29 PM CDT
Nautical Twilight 5:53 AM CDT 7:59 PM CDT
Astronomical Twilight 5:22 AM CDT 8:30 PM CDT
Moon 12:16 AM CDT (3/22) 10:39 AM CDT (3/22)
Length of Visible Light 13h 05m
Length of Day
12h 13m
Waning Gibbous, 65% of the Moon is Illuminated
Mar 22
Waning Gibbous
Mar 23
Last Quarter
Mar 30
New
Apr 7
First Quarter
Apr 15
Full

Hourly Weather History & Observations

Time (CDT) Temp. Windchill Dew Point Humidity Pressure Visibility Wind Dir Wind Speed Gust Speed Precip Events Conditions
12:15 AM 59.5 °F - 34.2 °F 39% 29.91 in 10.0 mi SW 8.1 mph - N/A   Overcast
12:35 AM 59.9 °F - 34.3 °F 38% 29.91 in 10.0 mi SW 8.1 mph - N/A   Overcast
12:55 AM 59.4 °F - 34.5 °F 39% 29.91 in 10.0 mi SW 6.9 mph - N/A   Overcast
1:15 AM 59.2 °F - 35.4 °F 41% 29.91 in 10.0 mi SW 6.9 mph - N/A   Overcast
1:35 AM 58.1 °F - 36.1 °F 44% 29.94 in 10.0 mi NW 10.4 mph 17.3 mph N/A   Overcast
1:55 AM 58.1 °F - 37.4 °F 46% 29.95 in 10.0 mi NW 6.9 mph - N/A   Overcast
2:15 AM 58.1 °F - 38.7 °F 48% 29.95 in 10.0 mi WNW 6.9 mph - N/A   Overcast
2:35 AM 58.8 °F - 40.6 °F 51% 29.96 in 10.0 mi NNW 15.0 mph 21.9 mph N/A   Overcast
2:55 AM 57.6 °F - 39.7 °F 51% 29.97 in 10.0 mi North 11.5 mph 20.7 mph N/A   Overcast
3:15 AM 54.9 °F - 39.7 °F 57% 29.97 in 10.0 mi North 11.5 mph - N/A   Mostly Cloudy
3:35 AM 53.8 °F - 38.5 °F 56% 29.98 in 10.0 mi North 9.2 mph - N/A   Scattered Clouds
3:55 AM 53.6 °F - 37.8 °F 55% 29.98 in 10.0 mi North 9.2 mph - N/A   Scattered Clouds
4:15 AM 52.9 °F - 37.8 °F 56% 29.99 in 10.0 mi North 9.2 mph - N/A   Mostly Cloudy
4:35 AM 52.9 °F - 38.1 °F 57% 30.00 in 10.0 mi North 10.4 mph - N/A   Mostly Cloudy
4:55 AM 52.9 °F - 38.7 °F 58% 30.00 in 10.0 mi North 9.2 mph - N/A   Overcast
5:15 AM 51.6 °F - 38.5 °F 61% 30.01 in 10.0 mi North 10.4 mph - N/A   Scattered Clouds
5:35 AM 50.4 °F - 38.8 °F 65% 30.03 in 10.0 mi North 8.1 mph - N/A   Clear
5:55 AM 49.8 °F - 39.2 °F 67% 30.04 in 10.0 mi North 6.9 mph - N/A   Clear
6:15 AM 49.6 °F - 39.2 °F 67% 30.04 in 10.0 mi North 8.1 mph - N/A   Clear
6:35 AM 49.6 °F - 38.7 °F 66% 30.06 in 10.0 mi North 10.4 mph 16.1 mph N/A   Clear
6:55 AM 49.5 °F - 38.5 °F 66% 30.07 in 10.0 mi North 11.5 mph - N/A   Mostly Cloudy
7:15 AM 49.1 °F - 38.8 °F 68% 30.08 in 10.0 mi North 13.8 mph - N/A   Overcast
7:35 AM 48.2 °F - 39.6 °F 72% 30.09 in 10.0 mi North 16.1 mph - N/A   Overcast
7:55 AM 47.8 °F - 40.3 °F 75% 30.09 in 10.0 mi North 11.5 mph - N/A   Scattered Clouds
8:15 AM 46.8 °F - 39.2 °F 75% 30.10 in 10.0 mi North 16.1 mph 24.2 mph N/A   Mostly Cloudy
8:35 AM 46.4 °F 40.4 °F 38.8 °F 75% 30.11 in 10.0 mi North 13.8 mph - N/A   Overcast
9:00 AM 46.0 °F 39.6 °F 38.3 °F 74% 30.13 in 10.0 mi NNE 15.0 mph - N/A   Overcast
9:15 AM 46.4 °F 40.4 °F 38.1 °F 73% 30.14 in 10.0 mi NNE 13.8 mph 18.4 mph N/A   Overcast
9:35 AM 46.4 °F 41.1 °F 35.6 °F 66% 30.15 in 10.0 mi NE 11.5 mph - N/A   Mostly Cloudy
9:55 AM 47.7 °F - 35.4 °F 63% 30.16 in 10.0 mi NE 8.1 mph - N/A   Scattered Clouds
10:15 AM 47.8 °F - 35.2 °F 62% 30.16 in 10.0 mi NNE 10.4 mph - N/A   Scattered Clouds
10:35 AM 48.4 °F - 36.1 °F 63% 30.16 in 10.0 mi North 8.1 mph 17.3 mph N/A   Scattered Clouds
10:55 AM 48.4 °F - 35.6 °F 61% 30.16 in 10.0 mi North 11.5 mph - N/A   Scattered Clouds
11:15 AM 49.1 °F - 35.8 °F 60% 30.17 in 10.0 mi NNW 11.5 mph - N/A   Clear
11:35 AM 49.8 °F - 35.8 °F 59% 30.17 in 10.0 mi North 10.4 mph - N/A   Clear
11:55 AM 50.5 °F - 36.9 °F 59% 30.17 in 10.0 mi North 13.8 mph 18.4 mph N/A   Clear
12:15 PM 51.1 °F - 36.3 °F 57% 30.17 in 10.0 mi North 11.5 mph - N/A   Clear
12:55 PM 52.0 °F - 36.0 °F 54% 30.15 in 10.0 mi North 9.2 mph 18.4 mph N/A   Clear
1:15 PM 53.2 °F - 36.3 °F 53% 30.15 in 10.0 mi North 11.5 mph 17.3 mph N/A   Clear
1:35 PM 53.1 °F - 35.2 °F 51% 30.13 in 10.0 mi NNW 10.4 mph 16.1 mph N/A   Clear
1:55 PM 54.3 °F - 35.6 °F 49% 30.13 in 10.0 mi North 11.5 mph - N/A   Clear
2:15 PM 54.9 °F - 36.1 °F 49% 30.13 in 10.0 mi North 8.1 mph - N/A   Clear
2:35 PM 55.2 °F - 34.9 °F 46% 30.13 in 10.0 mi NNW 9.2 mph - N/A   Clear
2:55 PM 56.1 °F - 36.1 °F 47% 30.12 in 10.0 mi NNE 10.4 mph 17.3 mph N/A   Clear
3:15 PM 55.6 °F - 35.1 °F 46% 30.12 in 10.0 mi NNW 9.2 mph - N/A   Clear
3:35 PM 56.5 °F - 35.6 °F 46% 30.12 in 10.0 mi NNE 9.2 mph - N/A   Clear
3:55 PM 56.3 °F - 35.1 °F 45% 30.12 in 10.0 mi North 10.4 mph 17.3 mph N/A   Clear
4:15 PM 56.1 °F - 34.5 °F 44% 30.12 in 10.0 mi North 8.1 mph - N/A   Clear
4:35 PM 56.5 °F - 35.2 °F 45% 30.12 in 10.0 mi North 11.5 mph 16.1 mph N/A   Clear
4:55 PM 56.3 °F - 35.4 °F 46% 30.13 in 10.0 mi NNW 9.2 mph - N/A   Clear
5:15 PM 56.3 °F - 36.1 °F 47% 30.13 in 10.0 mi NNW 12.7 mph - N/A   Clear
5:35 PM 55.8 °F - 35.4 °F 46% 30.13 in 10.0 mi North 9.2 mph - N/A   Clear
5:55 PM 55.0 °F - 35.1 °F 47% 30.13 in 10.0 mi North 12.7 mph - N/A   Clear
6:15 PM 54.1 °F - 34.3 °F 47% 30.13 in 10.0 mi North 9.2 mph - N/A   Clear
6:35 PM 52.7 °F - 34.9 °F 51% 30.13 in 10.0 mi North 10.4 mph - N/A   Clear
6:55 PM 50.7 °F - 35.2 °F 55% 30.14 in 10.0 mi North 9.2 mph - N/A   Clear
7:15 PM 48.7 °F - 35.6 °F 60% 30.14 in 10.0 mi North 8.1 mph - N/A   Clear
7:35 PM 46.8 °F - 36.5 °F 67% 30.14 in 10.0 mi North 6.9 mph - N/A   Clear
7:55 PM 46.6 °F - 36.0 °F 67% 30.15 in 10.0 mi North 5.8 mph - N/A   Clear
8:15 PM 45.9 °F 42.3 °F 35.1 °F 66% 30.16 in 10.0 mi North 6.9 mph - N/A   Clear
8:35 PM 46.6 °F - 35.1 °F 64% 30.17 in 10.0 mi North 9.2 mph - N/A   Clear
8:55 PM 46.4 °F 41.9 °F 35.1 °F 65% 30.18 in 10.0 mi North 9.2 mph - N/A   Clear
9:15 PM 46.0 °F 41.4 °F 34.9 °F 65% 30.18 in 10.0 mi North 9.2 mph - N/A   Clear
9:35 PM 45.0 °F 40.1 °F 35.1 °F 68% 30.17 in 10.0 mi North 9.2 mph - N/A   Clear
9:55 PM 45.0 °F 40.1 °F 34.9 °F 68% 30.17 in 10.0 mi North 9.2 mph - N/A   Clear
10:15 PM 43.9 °F 39.3 °F 34.7 °F 70% 30.17 in 10.0 mi North 8.1 mph - N/A   Clear
10:35 PM 43.3 °F 39.2 °F 35.1 °F 73% 30.18 in 10.0 mi North 6.9 mph - N/A   Clear
10:55 PM 44.1 °F 40.8 °F 35.6 °F 72% 30.20 in 10.0 mi North 5.8 mph - N/A   Clear
11:15 PM 44.4 °F 39.0 °F 34.7 °F 69% 30.20 in 10.0 mi North 10.4 mph - N/A   Clear
11:35 PM 44.4 °F 39.0 °F 34.7 °F 69% 30.19 in 10.0 mi NNE 10.4 mph - N/A   Clear
11:55 PM 44.6 °F 39.2 °F 34.7 °F 68% 30.19 in 10.0 mi NNE 10.4 mph - N/A   Mostly Cloudy